Terminal Aerodrome Forecast
Issued by NWS

Home | Current Version | Previous Version | Text Only | Print | Product List | Glossary On
Versions: 1 2 3 4 5 6 7 8 9 10 11 12 13
000
FTUS46 KHNX 241421 AAA
TAFMCE
TAF AMD
KMCE 241421Z 2414/2512 VRB03KT 2SM BR SKC
     FM241600 VRB04KT 5SM HZ SKC
     FM241900 15008KT P6SM SKC
     FM250200 27005KT P6SM FEW250=

USA.gov is the U.S. government's official web portal to all federal, state and local government web resources and services.